Time;durP1;ratioP1;P1;durP2;ratioP2;P2;SDS_P1;SDS_P2;PMS_P1;PMS_P2;Temp;Humidity;BMP_temperature;BMP_pressure;BME280_temperature;BME280_humidity;BME280_pressure;Samples;Min_cycle;Max_cycle;Signal;HPM_P1;HPM_P2
2021/01/18 00:00:42;;;;;;;24.38;6.05;;;8.00;99.90;;;8.19;75.37;102253.06;4789036;29;20054;-73
2021/01/18 00:03:10;;;;;;;21.60;6.93;;;8.00;99.90;;;8.26;75.34;102245.38;4804328;29;20055;-69
2021/01/18 00:05:37;;;;;;;21.05;6.60;;;8.10;99.90;;;8.29;74.71;102242.81;4805086;29;20058;-70
2021/01/18 00:08:05;;;;;;;20.52;7.70;;;8.10;99.90;;;8.27;74.44;102248.03;4805455;29;20058;-69
2021/01/18 00:10:33;;;;;;;20.27;7.18;;;8.10;99.90;;;8.37;74.63;102236.91;4805381;29;20051;-72
2021/01/18 00:13:01;;;;;;;23.45;7.82;;;8.20;99.90;;;8.39;74.41;102239.56;4805205;29;20459;-70
2021/01/18 00:15:29;;;;;;;19.33;6.93;;;8.20;99.90;;;8.40;74.82;102228.19;4805223;29;20424;-69
2021/01/18 00:17:57;;;;;;;22.30;7.18;;;8.20;99.90;;;8.28;74.22;102212.03;4805139;29;20117;-69
2021/01/18 00:20:25;;;;;;;18.60;7.22;;;8.20;99.90;;;8.21;74.20;102216.22;4805058;29;20059;-69
2021/01/18 00:22:52;;;;;;;20.15;7.85;;;8.20;99.90;;;8.28;74.02;102238.41;4805174;29;20051;-69
2021/01/18 00:25:22;;;;;;;25.85;6.68;;;8.20;99.90;;;8.25;73.73;102233.03;4805095;29;20051;-69
2021/01/18 00:27:50;;;;;;;21.73;7.05;;;8.10;99.90;;;8.17;73.66;102227.50;4805046;29;20501;-69
2021/01/18 00:30:21;;;;;;;25.48;7.82;;;8.00;99.90;;;8.05;73.84;102228.06;4805108;29;20050;-69
2021/01/18 00:32:49;;;;;;;;;;;7.90;99.90;;;8.13;73.92;102236.19;4805624;29;20065;-69
2021/01/18 00:35:19;;;;;;;23.00;7.65;;;8.00;99.90;;;7.98;73.59;102209.44;4805098;29;19929;-69
2021/01/18 00:37:48;;;;;;;21.45;7.38;;;7.90;99.90;;;7.91;72.94;102218.03;4804057;29;20074;-69
2021/01/18 00:40:19;;;;;;;16.20;7.32;;;7.80;99.90;;;7.20;72.86;102116.81;4804936;29;20407;-69
2021/01/18 00:42:47;;;;;;;18.95;7.05;;;7.60;99.90;;;7.69;73.39;102219.16;4805228;29;20058;-69
2021/01/18 00:45:16;;;;;;;17.67;7.70;;;7.50;99.90;;;7.67;74.01;102196.25;4806305;29;20451;-69
2021/01/18 00:47:48;;;;;;;22.42;7.75;;;7.50;99.90;;;7.43;74.54;102149.06;4808650;29;20409;-69
2021/01/18 00:50:19;;;;;;;16.60;7.15;;;7.50;99.90;;;7.56;74.37;102176.63;4792481;29;20065;-69
2021/01/18 00:52:48;;;;;;;18.27;6.70;;;7.50;99.90;;;7.65;74.80;102206.75;4807791;29;20107;-69
2021/01/18 00:55:20;;;;;;;23.23;7.57;;;7.40;99.90;;;7.63;74.73;102200.53;4792574;29;20053;-69
2021/01/18 00:58:17;;;;;;;21.97;8.40;;;7.40;99.90;;;7.63;74.79;102194.38;4801908;29;20059;-69
2021/01/18 01:00:56;;;;;;;19.90;8.03;;;7.40;99.90;;;7.66;75.63;102197.09;4792008;29;20050;-69
2021/01/18 01:03:24;;;;;;;18.05;7.20;;;7.40;99.90;;;7.56;75.47;102176.63;4807564;29;20051;-70
2021/01/18 01:05:52;;;;;;;25.10;8.47;;;7.40;99.90;;;7.67;75.82;102191.88;4808497;29;20145;-69
2021/01/18 01:08:19;;;;;;;19.88;7.40;;;7.40;99.90;;;7.68;75.59;102192.78;4808758;29;20497;-69
2021/01/18 01:10:47;;;;;;;18.60;7.82;;;7.40;99.90;;;7.70;75.43;102191.09;4808390;29;20051;-69
2021/01/18 01:13:14;;;;;;;19.00;6.97;;;7.40;99.90;;;7.70;76.00;102191.97;4808208;29;20077;-69
2021/01/18 01:15:42;;;;;;;22.08;7.88;;;7.50;99.90;;;7.64;75.72;102191.81;4808195;29;20046;-70
2021/01/18 01:18:09;;;;;;;17.97;7.20;;;7.50;99.90;;;7.47;75.71;102158.81;4808230;29;20049;-69
2021/01/18 01:20:37;;;;;;;15.00;6.82;;;7.50;99.90;;;7.68;75.54;102188.41;4808111;29;20043;-69
2021/01/18 01:23:05;;;;;;;18.35;7.28;;;7.50;99.90;;;7.67;75.79;102193.59;4808037;29;20054;-69
2021/01/18 01:25:33;;;;;;;19.40;8.05;;;7.40;99.90;;;7.66;75.98;102198.00;4808060;29;20111;-69
2021/01/18 01:28:00;;;;;;;19.92;7.25;;;7.40;99.90;;;7.68;75.82;102195.41;4807823;29;20058;-69
2021/01/18 01:30:28;;;;;;;22.33;7.15;;;7.40;99.90;;;7.69;75.93;102191.91;4808136;29;20050;-69
2021/01/18 01:32:55;;;;;;;20.33;7.70;;;7.40;99.90;;;7.67;75.73;102193.59;4807796;29;20558;-69
2021/01/18 01:35:26;;;;;;;20.85;7.18;;;7.50;99.90;;;7.72;75.71;102190.28;4791729;29;20119;-69
2021/01/18 01:37:54;;;;;;;23.60;7.38;;;7.50;99.90;;;7.70;75.28;102189.34;4807878;29;20574;-69
2021/01/18 01:40:23;;;;;;;21.90;7.85;;;7.40;99.90;;;7.57;75.58;102184.56;4807632;29;20106;-69
2021/01/18 01:42:51;;;;;;;21.00;8.30;;;7.50;99.90;;;7.68;75.75;102185.78;4807684;29;20062;-69
2021/01/18 01:45:19;;;;;;;23.13;7.30;;;7.40;99.90;;;7.65;75.85;102183.03;4807700;29;20082;-69
2021/01/18 01:47:51;;;;;;;25.38;7.55;;;7.40;99.90;;;7.61;75.55;102186.44;4807676;29;20058;-69
2021/01/18 01:50:22;;;;;;;19.92;7.07;;;7.40;99.90;;;7.58;75.99;102183.72;4807736;29;20117;-69
2021/01/18 01:52:55;;;;;;;24.40;8.60;;;7.30;99.90;;;7.53;75.80;102187.06;4807632;29;20123;-69
2021/01/18 01:55:30;;;;;;;25.80;8.37;;;7.30;99.90;;;7.46;76.51;102180.72;4806747;29;20134;-69
2021/01/18 01:58:00;;;;;;;26.05;8.00;;;7.30;99.90;;;7.51;76.24;102194.91;4807442;29;20059;-69
2021/01/18 02:00:36;;;;;;;24.20;7.90;;;7.30;99.90;;;7.47;76.50;102192.16;4791197;29;20498;-69
2021/01/18 02:03:06;;;;;;;25.03;8.70;;;7.30;99.90;;;7.51;76.14;102196.66;4806313;29;20081;-69
2021/01/18 02:05:35;;;;;;;21.95;8.05;;;7.30;99.90;;;7.40;76.08;102201.59;4807371;29;20050;-68
2021/01/18 02:08:04;;;;;;;21.30;8.10;;;7.30;99.90;;;7.49;76.49;102219.44;4807793;29;20115;-69
2021/01/18 02:10:35;;;;;;;22.70;7.37;;;7.30;99.90;;;7.54;76.56;102202.00;4807276;29;20569;-70
2021/01/18 02:13:22;;;;;;;;;;;7.30;99.90;;;7.49;76.47;102198.38;4806513;29;20082;-69
2021/01/18 02:16:01;;;;;;;18.07;8.03;;;7.30;99.90;;;7.47;76.87;102195.66;4807187;29;20436;-69
2021/01/18 02:18:52;;;;;;;24.33;8.85;;;7.40;99.90;;;7.55;76.40;102204.69;4807246;29;20063;-69
2021/01/18 02:22:15;;;;;;;18.17;8.20;;;7.30;99.90;;;7.49;76.47;102206.25;4807160;29;20055;-69
2021/01/18 02:25:10;;;;;;;21.60;8.98;;;7.30;99.90;;;7.42;76.72;102205.19;4807246;29;20114;-69
2021/01/18 02:28:11;;;;;;;19.15;8.63;;;7.30;99.90;;;7.57;76.61;102202.13;4807178;29;20054;-69
2021/01/18 02:31:32;;;;;;;21.50;9.23;;;7.30;99.90;;;7.53;76.38;102195.84;4806897;29;20180;-69
2021/01/18 02:34:48;;;;;;;21.63;8.27;;;7.30;99.90;;;7.49;76.83;102199.22;4790701;29;20074;-69
2021/01/18 02:37:51;;;;;;;26.37;8.90;;;7.30;99.90;;;7.52;77.00;102194.06;4805748;29;20115;-69
2021/01/18 02:40:28;;;;;;;27.90;8.80;;;7.30;99.90;;;7.57;77.49;102192.44;4807202;29;20397;-69
2021/01/18 02:43:06;;;;;;;23.10;8.70;;;7.30;99.90;;;7.50;77.48;102182.59;4805415;29;20051;-69
2021/01/18 02:45:36;;;;;;;24.57;8.90;;;7.40;99.90;;;7.64;77.73;102202.34;4790678;29;20059;-69
2021/01/18 02:48:05;;;;;;;20.83;9.30;;;7.40;99.90;;;7.67;77.52;102197.13;4806681;29;20051;-69
2021/01/18 02:50:34;;;;;;;24.73;8.93;;;7.50;99.90;;;7.69;77.71;102197.19;4806600;29;20054;-69
2021/01/18 02:53:02;;;;;;;25.07;10.17;;;7.50;99.90;;;7.74;77.85;102193.81;4805345;29;20138;-69
2021/01/18 02:55:30;;;;;;;23.33;8.20;;;7.50;99.90;;;7.67;77.26;102190.97;4805207;29;20057;-69
2021/01/18 02:58:03;;;;;;;31.60;10.03;;;7.60;99.90;;;7.75;77.27;102194.72;4806452;29;20193;-69
2021/01/18 03:00:36;;;;;;;27.38;9.25;;;7.50;99.90;;;7.72;77.04;102197.28;4806460;29;20498;-69
2021/01/18 03:03:14;;;;;;;24.47;9.33;;;7.50;99.90;;;7.73;77.34;102188.53;4806430;29;20051;-69
2021/01/18 03:05:53;;;;;;;27.53;9.63;;;7.50;99.90;;;7.72;77.28;102184.13;4806140;29;20099;-69
2021/01/18 03:08:33;;;;;;;23.57;9.27;;;7.50;99.90;;;7.26;77.67;102110.81;4806447;29;20051;-69
2021/01/18 03:11:06;;;;;;;25.47;9.67;;;7.50;99.90;;;7.70;77.78;102184.09;4806398;29;20061;-69
2021/01/18 03:13:39;;;;;;;25.13;9.13;;;7.40;99.90;;;7.71;77.79;102188.47;4806277;29;20123;-69
2021/01/18 03:16:13;;;;;;;26.50;9.90;;;7.40;99.90;;;7.71;77.90;102187.59;4806184;29;20058;-69
2021/01/18 03:18:43;;;;;;;31.30;9.70;;;7.40;99.90;;;7.75;77.85;102187.72;4806073;29;20126;-69
2021/01/18 03:21:11;;;;;;;24.40;9.37;;;7.50;99.90;;;7.83;78.27;102175.66;4789900;29;20058;-69
2021/01/18 03:23:44;;;;;;;30.80;9.93;;;7.50;99.90;;;7.74;78.22;102146.41;4806406;29;20835;-70
2021/01/18 03:26:12;;;;;;;29.27;8.83;;;7.60;99.90;;;7.75;78.80;102174.56;4789806;29;20080;-69
2021/01/18 03:28:40;;;;;;;24.67;9.30;;;7.60;99.90;;;7.80;79.60;102170.28;4804764;29;20058;-69
2021/01/18 03:31:07;;;;;;;33.97;9.30;;;7.60;99.90;;;7.95;79.91;102170.75;4804654;29;20059;-69
2021/01/18 03:33:35;;;;;;;29.77;9.77;;;7.70;99.90;;;7.99;79.79;102167.31;4805945;29;20768;-69
2021/01/18 03:36:03;;;;;;;37.33;10.18;;;7.80;99.90;;;7.79;79.92;102141.28;4806181;29;20063;-69
2021/01/18 03:38:30;;;;;;;36.47;10.83;;;7.80;99.90;;;7.88;80.45;102152.97;4805853;29;20128;-69
2021/01/18 03:40:58;;;;;;;29.00;9.70;;;7.70;99.90;;;7.79;80.59;102165.88;4806041;29;20054;-69
2021/01/18 03:43:26;;;;;;;33.33;9.17;;;7.70;99.90;;;7.90;80.65;102163.53;4804752;29;20080;-70
2021/01/18 03:45:53;;;;;;;33.43;9.70;;;7.70;99.90;;;7.73;81.04;102143.75;4805950;29;20076;-69
2021/01/18 03:48:21;;;;;;;31.05;9.43;;;7.60;99.90;;;7.84;80.84;102166.91;4804846;29;20070;-71
2021/01/18 03:50:50;;;;;;;31.93;9.90;;;7.60;99.90;;;7.93;80.76;102159.25;4805830;29;20043;-71
2021/01/18 03:53:18;;;;;;;24.80;9.23;;;7.70;99.90;;;7.44;80.26;102061.34;4805824;29;20103;-70
2021/01/18 03:55:47;;;;;;;32.17;9.53;;;7.70;99.90;;;8.02;80.42;102140.16;4805542;29;20127;-69
2021/01/18 03:58:15;;;;;;;35.27;10.43;;;7.70;99.90;;;8.15;79.75;102151.06;4805665;29;20456;-69
2021/01/18 04:00:43;;;;;;;28.88;9.02;;;7.80;99.90;;;8.19;79.27;102152.03;4805666;29;20395;-69
2021/01/18 04:03:10;;;;;;;32.85;11.02;;;7.90;99.90;;;8.18;78.53;102145.88;4805379;29;20451;-69
2021/01/18 04:05:38;;;;;;;25.15;8.30;;;7.90;99.90;;;8.19;78.66;102166.09;4805342;29;20059;-69
2021/01/18 04:08:06;;;;;;;28.43;9.47;;;7.90;99.90;;;8.20;78.53;102146.81;4805554;29;20137;-69
2021/01/18 04:10:33;;;;;;;29.57;9.90;;;7.90;99.90;;;8.15;78.22;102155.44;4805479;29;20055;-69
2021/01/18 04:13:00;;;;;;;31.13;8.95;;;7.90;99.90;;;8.17;78.62;102154.63;4789212;29;20051;-69
2021/01/18 04:15:29;;;;;;;28.27;8.07;;;7.90;99.90;;;8.06;78.73;102148.19;4789202;29;20062;-69
2021/01/18 04:17:57;;;;;;;27.90;8.80;;;7.90;99.90;;;7.92;79.38;102139.03;4805351;29;20050;-69
2021/01/18 04:20:26;;;;;;;32.90;9.07;;;7.80;99.90;;;7.89;79.67;102141.59;4804668;29;20050;-69
2021/01/18 04:22:55;;;;;;;32.50;9.17;;;7.80;99.90;;;7.93;79.76;102143.47;4805035;29;20055;-69
2021/01/18 04:25:25;;;;;;;27.73;9.25;;;7.70;99.90;;;7.88;80.35;102142.41;4805070;29;20063;-69
2021/01/18 04:27:54;;;;;;;33.50;9.77;;;7.70;99.90;;;7.94;80.38;102139.97;4805124;29;20444;-69
2021/01/18 04:30:24;;;;;;;29.53;8.80;;;7.70;99.90;;;7.94;80.60;102139.06;4805165;29;20063;-69
2021/01/18 04:32:54;;;;;;;30.45;8.90;;;7.70;99.90;;;7.98;80.18;102126.00;4805333;29;20070;-70
2021/01/18 04:35:23;;;;;;;34.03;10.10;;;7.80;99.90;;;7.93;80.58;102134.66;4803820;29;20431;-69
2021/01/18 04:37:50;;;;;;;35.27;9.50;;;7.70;99.90;;;7.89;80.40;102135.44;4804940;29;20132;-70
2021/01/18 04:40:19;;;;;;;34.87;9.53;;;7.70;99.90;;;7.88;80.97;102142.41;4803940;29;20501;-69
2021/01/18 04:42:47;;;;;;;29.83;9.27;;;7.70;99.90;;;7.93;81.36;102139.94;4804933;29;20047;-69
2021/01/18 04:45:17;;;;;;;36.00;8.97;;;7.70;99.90;;;7.95;80.87;102132.94;4788879;29;20065;-69
2021/01/18 04:47:49;;;;;;;24.23;8.00;;;7.70;99.90;;;8.15;80.36;102127.34;4805098;29;20046;-69
2021/01/18 04:50:20;;;;;;;25.10;8.63;;;7.80;99.90;;;8.13;80.76;102128.13;4804894;29;20051;-69
2021/01/18 04:52:49;;;;;;;;;;;7.90;99.90;;;8.08;80.58;102128.03;4805386;29;20574;-70
2021/01/18 04:55:29;;;;;;;28.80;8.40;;;7.90;99.90;;;8.12;80.73;102123.75;4804979;29;19925;-71
2021/01/18 04:58:09;;;;;;;23.23;7.30;;;7.90;99.90;;;8.10;80.55;102126.34;4804973;29;20112;-69
2021/01/18 05:00:43;;;;;;;23.17;7.68;;;7.80;99.90;;;8.09;80.65;102119.28;4804915;29;20135;-69
2021/01/18 05:03:13;;;;;;;28.83;8.38;;;7.90;99.90;;;8.20;80.69;102122.19;4803855;29;20135;-70
2021/01/18 05:06:33;;;;;;;29.40;8.30;;;7.90;99.90;;;8.19;80.42;102123.94;4803714;29;20051;-69
2021/01/18 05:09:27;;;;;;;33.38;8.45;;;7.90;99.90;;;7.95;80.98;102085.53;4791031;29;20359;-70
2021/01/18 05:11:56;;;;;;;28.87;8.97;;;7.90;99.90;;;8.06;80.77;102113.03;4798149;29;20063;-68
2021/01/18 05:14:24;;;;;;;30.53;7.33;;;7.90;99.90;;;8.11;80.64;102104.38;4804692;29;20108;-67
2021/01/18 05:16:57;;;;;;;31.25;8.60;;;7.80;99.90;;;8.22;80.62;102104.69;4803720;29;20063;-67
2021/01/18 05:19:27;;;;;;;28.77;8.20;;;7.90;99.90;;;8.18;80.32;102100.19;4804569;29;20425;-68
2021/01/18 05:21:56;;;;;;;33.30;8.65;;;7.90;99.90;;;8.19;80.40;102102.84;4804750;29;20082;-68
2021/01/18 05:24:23;;;;;;;26.88;8.05;;;7.90;99.90;;;8.17;80.50;102103.66;4804746;29;20054;-67
2021/01/18 05:27:06;;;;;;;23.95;7.95;;;7.90;99.90;;;8.20;80.01;102104.66;4804709;29;20051;-67
2021/01/18 05:29:36;;;;;;;29.70;9.60;;;7.90;99.90;;;8.06;80.11;102092.84;4803472;29;20065;-67
2021/01/18 05:32:19;;;;;;;29.85;9.27;;;7.80;99.90;;;7.96;80.32;102087.31;4807792;29;20051;-67
2021/01/18 05:34:52;;;;;;;29.23;9.10;;;7.70;99.90;;;7.91;80.29;102092.47;4806970;29;20061;-67
2021/01/18 05:37:20;;;;;;;28.47;8.67;;;7.60;99.90;;;7.78;80.49;102092.13;4807957;29;20158;-67
2021/01/18 05:39:47;;;;;;;24.27;7.80;;;7.60;99.90;;;7.75;80.99;102090.28;4807911;29;20054;-67
2021/01/18 05:42:20;;;;;;;24.77;8.53;;;7.50;99.90;;;7.80;80.62;102080.75;4791367;29;20050;-67
2021/01/18 05:44:48;;;;;;;25.87;8.43;;;7.50;99.90;;;7.72;81.00;102089.31;4807775;29;20051;-67
2021/01/18 05:47:17;;;;;;;37.43;9.17;;;7.50;99.90;;;7.63;81.43;102076.78;4806607;29;20081;-67
2021/01/18 05:49:46;;;;;;;28.97;8.33;;;7.40;99.90;;;7.61;82.13;102085.47;4806475;29;20157;-67
2021/01/18 05:52:26;;;;;;;22.57;8.30;;;7.40;99.90;;;7.65;82.13;102082.97;4807708;29;20058;-67
2021/01/18 05:55:17;;;;;;;26.00;8.27;;;7.40;99.90;;;7.69;82.00;102092.75;4807462;29;20062;-67
2021/01/18 05:57:47;;;;;;;35.13;8.77;;;7.40;99.90;;;7.80;81.98;102088.66;4807761;29;20062;-67
2021/01/18 06:00:32;;;;;;;;;;;7.50;99.90;;;7.87;81.55;102094.97;4807979;29;20086;-67
2021/01/18 06:03:05;;;;;;;26.83;8.50;;;7.60;99.90;;;7.30;81.43;101989.00;4806218;29;19966;-67
2021/01/18 06:05:35;;;;;;;24.07;7.73;;;7.60;99.90;;;7.65;81.74;102072.44;4807447;29;20502;-68
2021/01/18 06:08:14;;;;;;;23.02;8.15;;;7.60;99.90;;;7.68;82.82;102085.72;4807174;29;20082;-67
2021/01/18 06:10:43;;;;;;;33.40;8.77;;;7.50;99.90;;;7.71;82.93;102087.50;4807382;29;20502;-67
2021/01/18 06:13:25;;;;;;;32.40;8.13;;;7.50;99.90;;;7.66;83.47;102086.50;4807227;29;20047;-67
2021/01/18 06:16:10;;;;;;;36.23;8.37;;;7.50;99.90;;;7.61;84.19;102073.22;4807143;29;20061;-67
2021/01/18 06:18:41;;;;;;;33.20;9.57;;;7.50;99.90;;;7.62;84.15;102087.28;4807353;29;20070;-67
2021/01/18 06:21:10;;;;;;;38.03;9.20;;;7.50;99.90;;;7.72;84.17;102081.41;4807258;29;20066;-69
2021/01/18 06:23:39;;;;;;;38.47;9.83;;;7.50;99.90;;;7.74;84.40;102096.38;4807692;29;20108;-67
2021/01/18 06:26:08;;;;;;;37.90;8.70;;;7.60;99.90;;;7.50;84.10;102058.88;4807046;29;20059;-67
2021/01/18 06:28:37;;;;;;;28.57;8.33;;;7.50;99.90;;;7.66;84.30;102082.16;4807101;29;20294;-67
2021/01/18 06:31:07;;;;;;;37.17;8.73;;;7.50;99.90;;;7.66;84.07;102078.63;4807265;29;20421;-67
2021/01/18 06:33:40;;;;;;;31.85;8.65;;;7.50;99.90;;;7.18;83.53;101960.63;4807099;29;20096;-67
2021/01/18 06:36:15;;;;;;;36.43;8.13;;;7.60;99.90;;;7.86;83.11;102073.00;4807236;29;20057;-67
2021/01/18 06:38:49;;;;;;;30.00;7.87;;;7.70;99.90;;;7.95;82.71;102086.44;4807025;29;20069;-67
2021/01/18 06:41:23;;;;;;;32.57;9.17;;;7.70;99.90;;;7.92;82.93;102086.34;4806724;29;20051;-67
2021/01/18 06:43:50;;;;;;;32.50;9.23;;;7.70;99.90;;;7.89;83.03;102073.09;4805318;29;20058;-67
2021/01/18 06:46:20;;;;;;;30.70;9.03;;;7.70;99.90;;;7.92;82.36;102073.16;4806864;29;20047;-67
2021/01/18 06:48:50;;;;;;;28.73;9.15;;;7.70;99.90;;;8.01;82.06;102076.03;4805601;29;20062;-67
2021/01/18 06:51:19;;;;;;;22.45;8.60;;;7.80;99.90;;;7.99;82.14;102072.47;4790324;29;20502;-67
2021/01/18 06:53:50;;;;;;;33.90;8.83;;;7.70;99.90;;;7.88;82.44;102071.31;4806629;29;20051;-67
2021/01/18 06:57:07;;;;;;;32.25;8.63;;;7.70;99.90;;;7.92;82.13;102075.81;4806599;29;20061;-67
2021/01/18 06:59:50;;;;;;;32.17;8.43;;;7.70;99.90;;;7.88;81.94;102063.41;4805838;29;20567;-67
2021/01/18 07:02:29;;;;;;;27.77;7.70;;;7.70;99.90;;;7.86;81.98;102051.03;4806587;29;20051;-68
2021/01/18 07:05:10;;;;;;;24.07;8.00;;;7.70;99.90;;;7.95;81.76;102061.81;4806435;29;20051;-67
2021/01/18 07:07:39;;;;;;;32.43;8.33;;;7.60;99.90;;;7.84;81.72;102073.84;4806407;29;20063;-67
2021/01/18 07:10:10;;;;;;;22.63;7.97;;;7.60;99.90;;;7.73;81.74;102060.38;4806199;29;20166;-67
2021/01/18 07:12:38;;;;;;;25.80;8.37;;;7.60;99.90;;;7.63;82.48;102057.44;4806225;29;20050;-67
2021/01/18 07:15:09;;;;;;;40.20;8.67;;;7.50;99.90;;;7.68;82.24;102075.19;4790034;29;20062;-68
2021/01/18 07:17:55;;;;;;;25.17;8.27;;;7.40;99.90;;;7.71;82.66;102075.25;4806211;29;20061;-67
2021/01/18 07:20:26;;;;;;;27.17;8.87;;;7.40;99.90;;;7.26;82.04;101987.16;4789800;29;20443;-67
2021/01/18 07:23:27;;;;;;;27.97;7.93;;;7.50;99.90;;;7.73;82.06;102081.44;4806048;29;20054;-67
2021/01/18 07:26:46;;;;;;;25.77;8.57;;;7.50;99.90;;;7.83;82.29;102093.13;4806053;29;20065;-67
2021/01/18 07:29:15;;;;;;;24.13;8.53;;;7.50;99.90;;;7.77;81.87;102088.59;4805972;29;20062;-67
2021/01/18 07:31:47;;;;;;;27.00;9.33;;;7.50;99.90;;;7.84;82.26;102090.50;4805918;29;20046;-67
2021/01/18 07:34:16;;;;;;;29.17;7.90;;;7.60;99.90;;;7.78;82.15;102094.75;4805908;29;20482;-67
2021/01/18 07:36:44;;;;;;;31.57;8.93;;;7.50;99.90;;;7.77;82.09;102088.59;4804503;29;20387;-67
2021/01/18 07:39:40;;;;;;;29.47;10.07;;;7.50;99.90;;;7.82;81.82;102107.16;4805666;29;20046;-67
2021/01/18 07:42:38;;;;;;;32.33;11.65;;;7.60;99.90;;;7.85;82.02;102101.94;4764053;29;20066;-67
2021/01/18 07:45:14;;;;;;;31.40;10.47;;;7.60;99.90;;;7.79;81.94;102094.78;4805690;29;20409;-67
2021/01/18 07:48:07;;;;;;;28.10;9.13;;;7.60;99.90;;;7.80;82.36;102093.91;4805731;29;20153;-68
2021/01/18 07:50:37;;;;;;;25.90;9.93;;;7.50;99.90;;;7.61;82.26;102052.16;4805604;29;20047;-68
2021/01/18 07:53:06;;;;;;;27.88;8.50;;;7.60;99.90;;;7.88;82.30;102095.00;4804315;29;20414;-68
2021/01/18 07:55:34;;;;;;;28.05;9.48;;;7.60;99.90;;;7.89;82.08;102106.44;4804233;29;20054;-68
2021/01/18 07:58:17;;;;;;;27.63;9.43;;;7.60;99.90;;;7.82;82.22;102083.44;4805472;29;20463;-68
2021/01/18 08:00:45;;;;;;;35.03;9.93;;;7.60;99.90;;;7.70;82.86;102086.66;4789175;29;20059;-68
2021/01/18 08:03:28;;;;;;;31.87;10.13;;;7.60;99.90;;;7.56;83.34;102095.00;4805402;29;20058;-68
2021/01/18 08:06:15;;;;;;;35.27;10.17;;;7.40;99.90;;;7.34;83.93;102069.81;4805406;29;20490;-68
2021/01/18 08:08:44;;;;;;;30.63;10.27;;;7.30;99.90;;;7.50;84.13;102095.72;4805503;29;20051;-68
2021/01/18 08:11:20;;;;;;;29.37;10.40;;;7.30;99.90;;;7.61;84.42;102093.38;4805517;29;20059;-68
2021/01/18 08:13:54;;;;;;;41.10;11.10;;;7.30;99.90;;;7.32;84.35;102078.56;4804167;29;20409;-68
2021/01/18 08:16:41;;;;;;;32.10;10.80;;;7.30;99.90;;;7.39;84.81;102097.19;4804124;29;20058;-68
2021/01/18 08:19:19;;;;;;;30.77;9.50;;;7.20;99.90;;;6.70;85.11;101993.47;4805318;29;20139;-68
2021/01/18 08:22:01;;;;;;;34.97;10.80;;;7.20;99.90;;;7.11;85.74;102077.09;4789270;29;20403;-68
2021/01/18 08:25:03;;;;;;;39.00;11.47;;;7.10;99.90;;;7.30;85.94;102103.06;4805545;29;20053;-68
2021/01/18 08:27:47;;;;;;;29.20;10.30;;;7.10;99.90;;;7.34;85.92;102096.16;4805421;29;20066;-68
2021/01/18 08:30:39;;;;;;;35.57;10.60;;;7.10;99.90;;;7.32;85.92;102087.31;4804042;29;20062;-68
2021/01/18 08:33:10;;;;;;;36.77;9.93;;;7.10;99.90;;;7.46;85.79;102099.13;4805423;29;20059;-68
2021/01/18 08:35:49;;;;;;;31.13;10.43;;;7.20;99.90;;;7.48;85.55;102097.44;4805325;29;20051;-68
2021/01/18 08:38:29;;;;;;;29.87;9.80;;;7.20;99.90;;;7.58;85.20;102091.56;4804367;29;20093;-68
2021/01/18 08:41:07;;;;;;;44.23;10.97;;;7.30;99.90;;;7.46;85.20;102087.69;4805525;29;20124;-67
2021/01/18 08:43:50;;;;;;;32.70;10.30;;;7.30;99.90;;;7.49;85.38;102093.94;4805167;29;20074;-68
2021/01/18 08:46:37;;;;;;;27.13;8.83;;;7.30;99.90;;;7.62;85.08;102097.81;4805273;29;20050;-68
2021/01/18 08:49:27;;;;;;;33.13;10.10;;;7.30;99.90;;;7.48;85.19;102094.81;4805391;29;20074;-68
2021/01/18 08:51:56;;;;;;;33.63;9.30;;;7.30;99.90;;;7.53;85.30;102090.53;4805472;29;20416;-68
2021/01/18 08:54:32;;;;;;;31.47;11.37;;;7.30;99.90;;;7.49;85.28;102078.13;4805250;29;20111;-68
2021/01/18 08:57:19;;;;;;;37.63;9.73;;;7.30;99.90;;;7.49;85.41;102078.13;4803897;29;20071;-68
2021/01/18 08:59:47;;;;;;;32.47;9.00;;;7.30;99.90;;;7.45;85.62;102081.56;4804794;29;20062;-68
2021/01/18 09:02:18;;;;;;;36.60;9.40;;;7.30;99.90;;;7.51;85.65;102067.69;4804922;29;20482;-67
2021/01/18 09:04:46;;;;;;;33.50;9.50;;;7.30;99.90;;;7.51;85.79;102072.94;4805167;29;20062;-67
2021/01/18 09:07:14;;;;;;;44.47;9.97;;;7.30;99.90;;;7.42;85.88;102068.31;4808418;29;20058;-68
2021/01/18 09:09:42;;;;;;;42.00;10.33;;;7.30;99.90;;;7.51;86.01;102068.53;4808388;29;20062;-68
2021/01/18 09:12:12;;;;;;;30.27;9.67;;;7.30;99.90;;;7.59;85.87;102064.38;4792139;29;20065;-68
2021/01/18 09:14:41;;;;;;;29.63;9.20;;;7.30;99.90;;;7.54;85.67;102068.66;4808511;29;20078;-66
2021/01/18 09:17:08;;;;;;;38.50;9.47;;;7.30;99.90;;;7.70;85.37;102064.69;4808157;29;20057;-66
2021/01/18 09:19:52;;;;;;;38.97;10.17;;;7.40;99.90;;;7.71;85.41;102056.81;4808371;29;20067;-66
2021/01/18 09:22:21;;;;;;;29.33;9.60;;;7.50;99.90;;;7.68;85.19;102054.13;4808098;29;20062;-67
2021/01/18 09:24:50;;;;;;;33.83;9.27;;;7.50;99.90;;;7.75;85.27;102052.50;4808092;29;20070;-67
2021/01/18 09:27:17;;;;;;;29.07;9.20;;;7.50;99.90;;;7.79;84.94;102049.09;4808058;29;20115;-68
2021/01/18 09:29:59;;;;;;;33.60;8.17;;;7.60;99.90;;;7.79;84.83;102038.56;4791737;29;20062;-68
2021/01/18 09:32:27;;;;;;;23.43;8.43;;;7.50;99.90;;;7.75;85.23;102052.50;4808257;29;20057;-67
2021/01/18 09:35:10;;;;;;;22.90;8.80;;;7.50;99.90;;;7.67;85.32;102041.78;4808180;29;20054;-68
2021/01/18 09:37:49;;;;;;;31.67;9.37;;;7.50;99.90;;;7.75;85.47;102040.25;4808234;29;20059;-67
2021/01/18 09:40:35;;;;;;;30.23;9.43;;;7.50;99.90;;;7.75;85.43;102039.34;4807977;29;20055;-68
2021/01/18 09:43:03;;;;;;;27.80;7.47;;;7.60;99.90;;;7.64;85.14;102015.38;4807886;29;20051;-67
2021/01/18 09:45:33;;;;;;;35.33;9.00;;;7.50;99.90;;;7.71;85.07;102019.03;4807772;29;20055;-67
2021/01/18 09:48:03;;;;;;;30.50;9.07;;;7.60;99.90;;;7.80;85.71;102025.44;4807726;29;20058;-66
2021/01/18 09:50:35;;;;;;;32.23;8.10;;;7.60;99.90;;;7.88;85.44;102029.16;4807639;29;20576;-69
2021/01/18 09:53:07;;;;;;;26.50;8.07;;;7.60;99.90;;;7.88;85.28;102026.53;4807854;29;20058;-67
2021/01/18 09:55:39;;;;;;;31.20;9.33;;;7.70;99.90;;;7.83;85.36;102012.38;4806420;29;20108;-68
2021/01/18 09:58:14;;;;;;;35.20;10.00;;;7.70;99.90;;;7.91;85.29;102010.81;4807612;29;20078;-68
2021/01/18 10:00:46;;;;;;;36.10;9.13;;;7.70;99.90;;;7.94;84.83;102025.78;4807565;29;20082;-68
2021/01/18 10:03:26;;;;;;;28.10;8.35;;;7.70;99.90;;;8.02;84.80;102034.78;4807341;29;20046;-69
2021/01/18 10:06:05;;;;;;;29.27;8.77;;;7.80;99.90;;;7.93;84.39;102027.56;4791202;29;20497;-68
2021/01/18 10:08:35;;;;;;;38.53;9.07;;;7.80;99.90;;;7.96;84.86;102034.63;4807575;29;20509;-67
2021/01/18 10:11:04;;;;;;;26.35;8.43;;;7.80;99.90;;;7.98;84.38;102038.19;4807314;29;20070;-68
2021/01/18 10:13:32;;;;;;;27.93;8.50;;;7.80;99.90;;;8.06;84.65;102029.63;4807326;29;20047;-69
2021/01/18 10:16:10;;;;;;;30.20;8.53;;;7.90;99.90;;;7.67;84.55;101948.72;4807308;29;20051;-69
2021/01/18 10:18:42;;;;;;;34.47;8.15;;;7.90;99.90;;;8.21;84.33;102034.34;4806628;29;20061;-68
2021/01/18 10:21:14;;;;;;;34.22;9.00;;;8.00;99.90;;;8.30;83.48;102034.63;4807205;29;20055;-67
2021/01/18 10:23:48;;;;;;;28.63;8.33;;;8.10;99.90;;;8.36;83.68;102028.59;4806988;29;20050;-67
2021/01/18 10:26:25;;;;;;;32.53;8.73;;;8.20;99.90;;;8.36;83.42;102036.50;4806121;29;20155;-67
2021/01/18 10:28:57;;;;;;;42.65;7.82;;;8.20;99.90;;;8.43;83.43;102036.69;4790537;29;20083;-68
2021/01/18 10:31:27;;;;;;;25.58;8.23;;;8.30;99.90;;;8.40;82.71;102038.38;4806783;29;20061;-68
2021/01/18 10:34:11;;;;;;;;;;;8.30;99.90;;;8.36;82.66;102034.78;4807329;29;20154;-67
2021/01/18 10:36:41;;;;;;;25.90;6.85;;;8.30;99.90;;;8.53;82.55;102032.50;4806938;29;19936;-68
2021/01/18 10:39:09;;;;;;;24.38;7.88;;;8.30;99.90;;;8.43;82.69;102018.22;4806838;29;20047;-73
2021/01/18 10:41:37;;;;;;;35.90;8.85;;;8.30;99.90;;;8.51;82.38;102021.03;4806860;29;20417;-69
2021/01/18 10:44:21;;;;;;;28.30;7.85;;;8.30;99.90;;;8.44;82.17;102019.13;4806850;29;20135;-67
2021/01/18 10:46:52;;;;;;;29.42;7.65;;;8.30;99.90;;;8.51;82.51;102019.28;4806572;29;20043;-67
2021/01/18 10:49:29;;;;;;;28.98;7.50;;;8.30;99.90;;;8.50;81.90;102016.59;4806825;29;20063;-68